默认 日期 大小 文件数 浏览量 最新下载 xml
allen磁力链接相关资源由用户搜索指令自动获取,结果来源于网络,本站不存储任何资料,亦不承担任何责任,请于24小时内删除,搜索到3679个磁力,用时4ms。
    {"poster.jpg": 58849, "screens.jpg": 131953, "sex.jsojsvas.sd.mp4": 1432006457}
创建时间: 2018-12-04 22:56:44 大小:1.33 GB 文件数量:3 热度:14 最近下载:2025-08-17 09:49:01
    {"folder.jpg": 147889, "14 - Still.mp3": 11498904, "11 - Detour.mp3": 11968066, "02 - Bridges.mp3": 12427822, "03 - Scorpio.mp3": 9520916, "07 - A Dream.mp3": 5177275, "06 - Imprismed.mp3": 9515695, "13 - Lascivious.mp3": 16438147, "01 - The Picture.mp3": ...
创建时间: 2018-12-04 23:50:12 大小:147.99 MB 文件数量:15 热度:7 最近下载:2024-10-15 02:38:01
    {"Tony Allen - Pori Jazz Festival.mp4": 4621152666}
创建时间: 2018-12-05 01:09:00 大小:4.3 GB 文件数量:1 热度:6 最近下载:2025-03-12 04:25:01
    {"Tabs": {"ElegantDecadence_SoloTranscription.pdf": 204662, "AllenHinds_BluesFusionMasterClass_BonusLicks.pdf": 190801}, "Intro.mp4": 59862343, "Lesson_01": {"01_AHLP_M01_13_AH.mp4": 111315448, "02_AHLP_M01_13_GB.mp4": 103831636, "03_AHLP_M01_13_BONUS.mp4 ...
创建时间: 2018-12-05 01:25:51 大小:2.79 GB 文件数量:36 热度:6 最近下载:2025-04-04 15:04:02
    {"Scans": {"sc01.jpg": 738291, "sc02.jpg": 747541, "sc03.jpg": 927014, "sc04.jpg": 1003127, "sc05.jpg": 723985, "sc06.jpg": 1000989, "sc07.jpg": 509667, "sc08.jpg": 268749, "cover.jpeg": 60413}, "10. Bittersweet.mp3": 10849324, "04. Solid Ground.mp3": ...
创建时间: 2018-12-05 01:30:53 大小:132.18 MB 文件数量:20 热度:6 最近下载:2025-04-07 11:27:02
    {"Premium": {"243479_full.jpg": 1401256, "243480_full.jpg": 1460075, "243481_full.jpg": 1583497, "243482_full.jpg": 1072295, "243483_full.jpg": 1352961, "243484_full.jpg": 1274074, "243485_full.jpg": 1319564, "243486_full.jpg": 1291262, "243487_full.jpg": ...
创建时间: 2018-12-05 02:37:54 大小:71.68 MB 文件数量:53 热度:28 最近下载:2025-04-26 02:25:02
    {"1983 - Zelig": {"sample.mkv": 10380609, "Zelig.1983.720p.x264.mkv": 1503105915}, "1990 - Alice": {"sample.mkv": 10966875, "Alice.1990.480p.x264.aac.mkv": 1350930477}, "1973 - Sleeper": {"sample.mkv": 24397600, "Sleeper.1973.1080p.BluRay.x264.aac.mkv": ...
创建时间: 2018-12-05 03:28:24 大小:52.15 GB 文件数量:64 热度:20 最近下载:2025-03-06 22:18:01
    {"cover.jpg": 26202, "Paul Allen - Idea Man; A Memoir by the Co-Founder of Microsoft.epub": 858973}
创建时间: 2018-12-05 04:35:21 大小:864.43 KB 文件数量:2 热度:8 最近下载:2023-04-21 18:50:07
    {"Allen_Woody-Getting_Even.epub": 118772, "Allen_Woody-Side_Effects.epub": 139856, "Allen_Woody-Without_Feathers.epub": 60958}
创建时间: 2018-12-05 06:39:33 大小:312.1 KB 文件数量:3 热度:7 最近下载:2025-04-06 07:57:02
    {"front.jpg": 740884, "04 - Ewa.flac": 47993262, "07 - Go Back.flac": 67546823, "08 - Ire Omo.flac": 64564202, "01 - Moving On.flac": 84145134, "10 - Tony Wood.flac": 71391075, "06 - Koko Dance.flac": 79439775, "09 - African Man.flac": 65966697, "02 - Boat ...
创建时间: 2018-12-05 12:40:38 大小:805.43 MB 文件数量:15 热度:10 最近下载:2023-04-22 00:00:12
    {"front.jpg": 30612, "04 - 22.mp3": 7393575, "11 - Him.mp3": 7820938, "10 - Chinese.mp3": 8273380, "02 - The Fear.mp3": 8291146, "03 - Not Fair.mp3": 8049774, "08 - Fuck You.mp3": 8620288, "05 - I Could Say.mp3": 9714303, "12 - He Wasn't There.mp3": ...
创建时间: 2018-12-05 12:59:32 大小:98.1 MB 文件数量:13 热度:10 最近下载:2025-07-10 02:52:02
    {"folder.jpg": 247929, "10 - Bittersweet.mp3": 10987859, "04 - Solid Ground.mp3": 12694177, "05 - Lady Of Winter.mp3": 12007684, "08 - The Great Divide.mp3": 15714985, "07 - Hymn For The Fallen.mp3": 13503987, "01 - Come & Dream With Me.mp3": 11220887, "03 ...
创建时间: 2018-12-05 13:39:29 大小:117.66 MB 文件数量:11 热度:7 最近下载:2025-04-06 03:58:02
    {"Torrent downloaded from demonoid.pw.txt": 46, "Vegan for the Holidays by Zel Allen.tgz": 5388037, "Torrent Downloaded From ExtraTorrent.cc.txt": 352}
创建时间: 2018-12-05 21:42:20 大小:5.14 MB 文件数量:3 热度:6 最近下载:2023-04-22 04:20:15
    ... - 01.mp3": 36604942, "Allen Frances - Twilight of American Sanity ... - 02.mp3": 37355568, "Allen Frances - Twilight of American Sanity ... - 03.mp3": 38337264, "Allen Frances - Twilight of American Sanity ... - 04.mp3": 38066736, "Allen Frances - Twilight of American ...
创建时间: 2018-12-05 22:32:11 大小:354.32 MB 文件数量:10 热度:8 最近下载:2025-04-07 07:51:02
    ... ": 139231, "skan005.jpg": 68939, "Daevid Allen - The Death of Rock.ape ... ": 305187476, "Daevid Allen - The Death of Rock.cue ... ": 1194, "Daevid Allen - The Death of Rock.log ...
创建时间: 2018-12-06 01:09:52 大小:292.71 MB 文件数量:8 热度:5 最近下载:2023-04-22 05:30:02
    ... , "Brian Flinn & Osireion - Ionosphere (Allen Watts remix).mp3": 20452284, "Armin ... remix).mp3": 19524212}, "2014 - Allen & Envy & Allen Watts - Kardia": {"02. Kardia ... ": 16734584}, "2014 - Chris Metcalfe & Allen Watts - Breakthrough": {"01. Breakthrough.mp3 ...
创建时间: 2018-12-06 04:00:57 大小:1.66 GB 文件数量:98 热度:7 最近下载:2025-04-20 17:55:01
    ... 5": 2095485}, "Bananas.Woody.Allen.1971.Spanish.English.Subs.HDTV ... 1667, "Bananas.(Woody.Allen,.1971).(Spanish.English.Subs). ... 1934449962, "Bananas.(Woody.Allen,.1971).(Spanish.English.Subs). ... 509891315, "Bananas.(Woody.Allen,.1971).(Spanish.English.Subs). ...
创建时间: 2018-12-06 06:15:12 大小:2.63 GB 文件数量:12 热度:28 最近下载:2025-09-16 03:14:02
    {"Sample": {"fuf252maalle-sample.wmv": 8578131}, "RARBG.com.txt": 34, "fuf252maalle.wmv": 414415529, "yp-fuf120522ma.nfo": 8585}
创建时间: 2018-12-06 10:42:09 大小:403.41 MB 文件数量:4 热度:14 最近下载:2025-06-30 20:45:01
    ... ": {"october-cover.jpg": 140283, "bishop allen - 03 - clementines.mp3": 9815736, " ... "bishop allen - charm school - 04 - bishop allen drive.mp3": 4228997, "bishop allen - charm ... - penitentiary bound.mp3": 2819012, "bishop allen - charm school - 12 - another ...
创建时间: 2018-12-06 12:48:03 大小:434.28 MB 文件数量:87 热度:10 最近下载:2025-04-08 00:01:56
    {"5_0CLOCK_TPAIN_FINALjg.jpg": 25202, "T-Pain feat. Wiz Khalifa & Lily Allen - 5 O_Clock.mp3": 5766673}
创建时间: 2018-12-06 16:14:06 大小:5.52 MB 文件数量:2 热度:8 最近下载:2025-09-17 08:30:06